x

Ne Bahamas - 350 Nm Ene Of Nassau, Bahamas (41047) Wave Buoy

1:50pm - Sun 3rd May 2015 All times are UTC.

  • Sig Wave height 10.2ft
  • Swell Direction
  • Peak Period 11s
  • Average Period 8s
  • Wind
    9mph, 13mph gusts
  • Sea Temp 75°f
  • Air Temp 72°f
  • Sea Pressure 1018.3mb

More Historic Weather Station data

Upgrade to MSW Pro to gain access to the past 30 days of data for over 8000 Wavebouys and Weather Stations around the globe.

Join Pro

Comparision Forecast

View Surf forecast
   
Sun 05/03 1:50pm 10ft 11s 8s 9 13 mph 1018.3mb 75f 72f
12:50pm 10ft 11s 8s 11 13 mph 1017.8mb 75f 72f
11:50am 11ft 11s 8s 13 18 mph 1017.2mb 75f 72f
10:50am 11ft 11s 8s 13 18 mph 1016.9mb 75f 71f
9:50am 11ft 11s 8s 16 20 mph 1015.7mb 75f 71f
8:50am 10ft 11s 8s 13 18 mph 1015.5mb 76f 71f
7:50am 11ft 11s 8s 16 18 mph 1014.8mb 76f 71f
6:50am 10ft 11s 8s 13 18 mph 1015.1mb 76f 71f
5:50am 8ft 11s 7s 16 18 mph 1015.3mb 76f 71f
4:50am 7.5ft 8s 7s 18 22 mph 1015.1mb 76f 71f
3:50am 7.5ft 8s 6s 18 20 mph 1015.3mb 76f 72f
2:50am 7ft 8s 6s 16 18 mph 1015.4mb 76f 72f
1:50am 7ft 8s 6s 16 18 mph 1015.1mb 76f 72f
12:50am 7ft 8s 6s 18 22 mph 1014.6mb 76f 72f
Sat 05/02 11:50pm 7ft 8s 6s 18 22 mph 1013.8mb 76f 72f
10:50pm 7ft 8s 6s 22 25 mph 1013.1mb 76f 72f
9:50pm 6.5ft 8s 6s 20 27 mph 1012.6mb 76f 72f
8:50pm 6.5ft 8s 6s 20 25 mph 1012.4mb 76f 73f
7:50pm 6ft 7s 6s 20 22 mph 1012.4mb 76f 73f
6:50pm 6ft 8s 6s 18 22 mph 1012.5mb 76f 73f
5:50pm 6ft 8s 6s 18 22 mph 1012.6mb 76f 73f
4:50pm 6ft 8s 6s 16 20 mph 1012.9mb 76f 73f
3:50pm 6ft 7s 5s 16 20 mph 1013mb 76f 73f
2:50pm 5ft 7s 5s 18 22 mph 1012.5mb 76f 73f
1:50pm 5ft 6s 5s 20 25 mph 1012mb 76f 73f
12:50pm 5ft 7s 5s 20 22 mph 1011.4mb 76f 73f
11:50am 5ft 7s 5s 20 22 mph 1010.9mb 76f 73f
10:50am 4.5ft 7s 5s 22 27 mph 1010.3mb 76f 74f
9:50am 4.5ft 7s 5s 18 20 mph 1009.7mb 76f 75f
8:50am 4.5ft 8s 5s 18 20 mph 1009.4mb 76f 75f
7:50am 4.5ft 7s 5s 18 20 mph 1009.5mb 76f 74f
6:50am 4.5ft 8s 5s 16 20 mph 1009.5mb 76f 74f
5:50am 4.5ft 7s 5s 13 18 mph 1010.2mb 76f 73f
4:50am 4.5ft 8s 6s 13 18 mph 1010.9mb 76f 73f
3:50am 5ft 8s 6s 11 16 mph 1011mb 76f 72f
2:50am 5ft 8s 6s 9 11 mph 1011.1mb 76f 70f
1:50am 5ft 8s 6s 9 11 mph 1011.1mb 76f 69f
12:50am 5ft 7s 6s 9 11 mph 1010.6mb 76f 68f
Fri 05/01 11:50pm 5ft 8s 6s 11 16 mph 1010.2mb 76f 70f
10:50pm 5ft 8s 6s 16 20 mph 1009.8mb 76f 71f
9:50pm 5.5ft 8s 6s 13 18 mph 1009.7mb 76f 70f
8:50pm 5ft 8s 6s 13 18 mph 1009.5mb 76f 71f
7:50pm 5ft 8s 6s 13 16 mph 1009.9mb 76f 70f
6:50pm 5ft 8s 6s 4 7 mph 1010.3mb 76f 71f
5:50pm 5.5ft 8s 6s 4 7 mph 1011mb 76f 72f
4:50pm 5.5ft 8s 6s 13 16 mph 1010.8mb 76f 74f
3:50pm 5.5ft 7s 6s 11 16 mph 1011.1mb 76f 74f
2:50pm 6ft 7s 6s 11 13 mph 1010.9mb 76f 75f
1:50pm 6ft 7s 6s 13 16 mph 1010.3mb 76f 75f
12:50pm 6ft 8s 6s 16 18 mph 1009.7mb 76f 75f
11:50am 6ft 7s 6s 18 22 mph 1009.3mb 76f 74f
10:50am 6ft 7s 6s 18 20 mph 1009.4mb 76f 75f
9:50am 6ft 7s 6s 18 22 mph 1008.8mb 77f 76f
8:50am 6ft 7s 5s 20 25 mph 1008.3mb 77f 76f
7:50am 6ft 7s 6s 18 22 mph 1008mb 77f 76f
6:50am 6ft 7s 5s 20 25 mph 1008.2mb 77f 76f
5:50am 6ft 7s 5s 20 25 mph 1008.3mb 77f 76f
4:50am 6ft 7s 5s 22 27 mph 1008.6mb 77f 76f
3:50am 6.5ft 8s 6s 20 22 mph 1008.8mb 77f 77f
2:50am 6.5ft 7s 6s 18 22 mph 1008.7mb 77f 77f
1:50am 7ft 7s 6s 18 22 mph 1008.4mb 77f 77f
12:50am 6.5ft 7s 6s 18 22 mph 1008.1mb 77f 77f
Thu 04/30 11:50pm 6.5ft 7s 5s 16 20 mph 1008mb 77f 74f
10:50pm 6ft 6s 5s 22 29 mph 1007.5mb 77f 76f
9:50pm 6ft 7s 5s 20 25 mph 1006.3mb 77f 76f
8:50pm 6ft 7s 6s 18 20 mph 1006.1mb 77f 78f
7:50pm 6ft 8s 6s 18 22 mph 1005.8mb 77f 78f
6:50pm 5.5ft 6s 6s 16 18 mph 1006.2mb 77f 78f
5:50pm 5.5ft 11s 6s 18 20 mph 1006.9mb 77f 78f
4:50pm 5.5ft 7s 6s 16 18 mph 1007.1mb 77f 78f
3:50pm 5ft 8s 6s 11 13 mph 1007.1mb 77f 78f
2:50pm 4.5ft 8s 6s 11 13 mph 1007.2mb 77f 78f
1:50pm 5ft 8s 6s 13 18 mph 1006.9mb 77f 78f
12:50pm 5ft 6s 6s 13 16 mph 1006.5mb 77f 78f
11:50am 5.5ft 11s 6s 11 13 mph 1006mb 77f 78f
10:50am 5ft 9s 6s 11 16 mph 1005.6mb 77f 78f
9:50am 5ft 9s 6s 11 13 mph 1005mb 77f 78f
8:50am 5ft 9s 6s 13 16 mph 1004.1mb 77f 78f
7:50am 4.5ft 10s 6s 16 18 mph 1004mb 77f 78f
6:50am 4.5ft 10s 6s 16 18 mph 1004mb 77f 78f
5:50am 5ft 10s 6s 16 18 mph 1004.8mb 77f 78f
4:50am 4.5ft 9s 5s 13 16 mph 1005.6mb 77f 78f
3:50am 5ft 11s 5s 18 22 mph 1005.8mb 77f 78f
2:50am 5ft 9s 5s 20 25 mph 1006mb 77f 78f
1:50am 5ft 8s 6s 20 25 mph 1005.8mb 77f 78f
12:50am 5ft 10s 6s 18 20 mph 1005.2mb 77f 78f
Wed 04/29 11:50pm 5.5ft 9s 6s 18 20 mph 1005.2mb 77f 77f
10:50pm 6ft 9s 6s 18 20 mph 1005.3mb 77f 78f
9:50pm 6ft 10s 6s 18 22 mph 1005.2mb 77f 77f
8:50pm 6ft 8s 6s 18 22 mph 1005.5mb 77f 77f
7:50pm 6ft 9s 6s 18 22 mph 1005.6mb 77f 76f
6:50pm 5ft 10s 6s 22 27 mph 1006.6mb 78f 76f
5:50pm 5ft 9s 7s 13 18 mph 1008mb 78f 76f
4:50pm 5.5ft 10s 7s 11 16 mph 1009.1mb 78f 74f
3:50pm 5ft 9s 7s 9 13 mph 1009.4mb 78f 73f